createdAt,value
2022-08-05T00:00:55.996Z,63.87
2022-08-05T00:02:21.321Z,63.89
2022-08-05T00:03:24.623Z,63.98
2022-08-05T00:04:32.235Z,64.14
2022-08-05T00:06:05.553Z,64.19
2022-08-05T00:07:02.700Z,64.31
2022-08-05T00:08:34.282Z,64.37
2022-08-05T00:09:38.540Z,64.48
2022-08-05T00:10:47.171Z,64.70
2022-08-05T00:11:55.663Z,64.69
2022-08-05T00:13:09.480Z,64.62
2022-08-05T00:14:27.809Z,64.55
2022-08-05T00:15:58.226Z,64.62
2022-08-05T00:17:05.923Z,64.62
2022-08-05T00:18:22.898Z,64.46
2022-08-05T00:19:33.831Z,64.49
2022-08-05T00:20:49.037Z,64.38
2022-08-05T00:21:52.307Z,64.39
2022-08-05T00:22:58.500Z,64.51
2022-08-05T00:24:10.381Z,64.47
2022-08-05T00:25:14.257Z,64.47
2022-08-05T00:26:20.187Z,64.59
2022-08-05T00:27:35.955Z,64.56
2022-08-05T00:28:39.893Z,64.52
2022-08-05T00:29:43.010Z,64.48
2022-08-05T00:30:46.162Z,64.61
2022-08-05T00:32:12.519Z,64.62
2022-08-05T00:34:54.016Z,64.48
2022-08-05T00:35:03.640Z,64.49
2022-08-05T00:36:16.273Z,64.47
2022-08-05T00:37:51.267Z,64.47
2022-08-05T00:38:52.683Z,64.64
2022-08-05T00:39:58.340Z,64.76
2022-08-05T00:41:02.388Z,64.83
2022-08-05T00:42:08.759Z,64.83
2022-08-05T00:43:15.341Z,64.91
2022-08-05T00:44:18.644Z,64.89
2022-08-05T00:45:39.152Z,64.91
2022-08-05T00:46:47.006Z,64.80
2022-08-05T00:48:05.610Z,64.83
2022-08-05T00:49:09.645Z,64.87
2022-08-05T00:50:21.070Z,64.92
2022-08-05T00:51:50.873Z,65.01
2022-08-05T00:52:47.540Z,65.02
2022-08-05T00:54:02.472Z,65.24
2022-08-05T00:55:06.771Z,65.20
2022-08-05T00:56:09.990Z,65.27
2022-08-05T00:57:15.697Z,65.30
2022-08-05T00:58:27.235Z,65.38
2022-08-05T00:59:34.737Z,65.43
2022-08-05T01:00:50.349Z,65.32
2022-08-05T01:01:53.630Z,65.33
2022-08-05T01:02:59.935Z,65.22
2022-08-05T01:04:04.042Z,65.22
2022-08-05T01:05:17.183Z,65.22
2022-08-05T01:06:20.385Z,65.22
2022-08-05T01:07:35.477Z,65.21
2022-08-05T01:08:42.758Z,65.38
2022-08-05T01:09:55.656Z,65.36
2022-08-05T01:11:11.485Z,65.55
2022-08-05T01:12:20.627Z,65.64
2022-08-05T01:13:58.585Z,65.72
2022-08-05T01:15:05.750Z,65.71
2022-08-05T01:16:44.608Z,65.54
2022-08-05T01:18:05.661Z,65.50
2022-08-05T01:19:36.671Z,65.46
2022-08-05T01:20:46.878Z,65.45
2022-08-05T01:22:15.333Z,65.61
2022-08-05T01:23:34.859Z,65.54
2022-08-05T01:24:47.303Z,65.79
2022-08-05T01:26:14.215Z,65.95
2022-08-05T01:27:50.554Z,65.88
2022-08-05T01:29:04.976Z,66.00
2022-08-05T01:30:12.402Z,66.14
2022-08-05T01:31:45.009Z,66.09
2022-08-05T01:32:51.336Z,65.99
2022-08-05T01:33:59.712Z,66.12
2022-08-05T01:35:50.988Z,65.95
2022-08-05T01:36:47.980Z,65.95
2022-08-05T01:37:55.258Z,66.09
2022-08-05T01:39:01.337Z,66.12
2022-08-05T01:40:06.290Z,66.11
2022-08-05T01:41:13.989Z,66.24
2022-08-05T01:42:20.848Z,66.27
2022-08-05T01:43:25.843Z,66.40
2022-08-05T01:44:34.218Z,66.35
2022-08-05T01:45:43.150Z,66.28
2022-08-05T01:46:47.553Z,66.14
2022-08-05T01:47:54.482Z,66.17
2022-08-05T01:49:01.133Z,65.93
2022-08-05T01:50:30.476Z,65.72
2022-08-05T01:51:36.128Z,65.64
2022-08-05T01:52:43.289Z,65.74
2022-08-05T01:53:57.048Z,65.62
2022-08-05T01:55:07.215Z,65.61
2022-08-05T01:58:11.440Z,65.60
2022-08-05T01:58:12.155Z,65.56
2022-08-05T01:59:16.117Z,65.65
2022-08-05T02:00:20.004Z,65.69
2022-08-05T02:01:39.999Z,65.98
2022-08-05T02:02:53.677Z,65.82
2022-08-05T02:04:00.268Z,66.04
2022-08-05T02:05:11.639Z,66.11
2022-08-05T02:06:33.981Z,66.02
2022-08-05T02:07:40.093Z,66.15
2022-08-05T02:08:55.024Z,66.30
2022-08-05T02:10:03.612Z,66.38
2022-08-05T02:11:11.826Z,66.33
2022-08-05T02:12:40.768Z,66.24
2022-08-05T02:13:53.280Z,66.27
2022-08-05T02:15:33.289Z,66.44
2022-08-05T02:16:52.884Z,66.40
2022-08-05T02:18:32.145Z,66.45
2022-08-05T02:19:28.310Z,66.45
2022-08-05T02:20:40.828Z,66.59
2022-08-05T02:21:53.386Z,66.53
2022-08-05T02:23:01.647Z,66.55
2022-08-05T02:24:09.388Z,66.64
2022-08-05T02:25:19.743Z,66.76
2022-08-05T02:26:54.579Z,66.72
2022-08-05T02:28:01.201Z,66.80
2022-08-05T02:29:06.442Z,67.05
2022-08-05T02:30:28.893Z,67.06
2022-08-05T02:31:37.203Z,66.96
2022-08-05T02:32:41.962Z,67.03
2022-08-05T02:33:57.314Z,67.15
2022-08-05T02:35:13.294Z,67.33
2022-08-05T02:36:20.939Z,67.21
2022-08-05T02:37:32.842Z,67.22
2022-08-05T02:38:38.801Z,67.20
2022-08-05T02:39:42.749Z,67.10
2022-08-05T02:40:56.329Z,67.13
2022-08-05T02:42:02.151Z,67.06
2022-08-05T02:43:07.426Z,67.10
2022-08-05T02:44:13.571Z,67.11
2022-08-05T02:45:18.912Z,67.18
2022-08-05T02:46:32.107Z,67.13
2022-08-05T02:48:06.428Z,67.01
2022-08-05T02:49:00.569Z,67.09
2022-08-05T02:50:05.474Z,67.16
2022-08-05T02:51:12.362Z,67.11
2022-08-05T02:52:29.741Z,67.23
2022-08-05T02:53:39.549Z,67.23
2022-08-05T02:54:52.138Z,67.35
2022-08-05T02:56:02.342Z,67.45
2022-08-05T02:58:19.714Z,67.32
2022-08-05T02:58:37.716Z,67.43
2022-08-05T02:59:51.978Z,67.47
2022-08-05T03:01:11.693Z,67.60
2022-08-05T03:02:21.272Z,67.52
2022-08-05T03:03:26.062Z,67.56
2022-08-05T03:04:30.177Z,67.51
2022-08-05T03:06:54.061Z,67.50
2022-08-05T03:06:59.481Z,67.47
2022-08-05T03:08:08.522Z,67.37
2022-08-05T03:09:15.822Z,67.55
2022-08-05T03:10:24.509Z,67.54
2022-08-05T03:11:57.429Z,67.58
2022-08-05T03:12:54.411Z,67.62
2022-08-05T03:14:03.153Z,67.77
2022-08-05T03:15:12.308Z,67.77
2022-08-05T03:16:16.321Z,67.74
2022-08-05T03:17:23.233Z,67.56
2022-08-05T03:18:29.961Z,67.27
2022-08-05T03:19:36.171Z,67.15
2022-08-05T03:20:48.757Z,67.12
2022-08-05T03:21:52.473Z,67.00
2022-08-05T03:22:57.635Z,67.01
2022-08-05T03:24:29.790Z,67.09
2022-08-05T03:26:03.574Z,67.17
2022-08-05T03:27:10.328Z,67.44
2022-08-05T03:28:18.857Z,67.27
2022-08-05T03:29:23.303Z,67.07
2022-08-05T03:30:33.367Z,66.99
2022-08-05T03:31:56.121Z,66.86
2022-08-05T03:33:02.111Z,66.61
2022-08-05T03:34:06.205Z,66.74
2022-08-05T03:35:11.639Z,66.76
2022-08-05T03:36:30.374Z,66.79
2022-08-05T03:37:45.847Z,66.88
2022-08-05T03:38:52.482Z,67.15
2022-08-05T03:40:06.446Z,67.23
2022-08-05T03:41:23.604Z,67.38
2022-08-05T03:42:29.090Z,67.53
2022-08-05T03:44:09.334Z,67.66
2022-08-05T03:45:22.491Z,67.41
2022-08-05T03:46:34.566Z,67.35
2022-08-05T03:47:41.328Z,67.31
2022-08-05T03:48:46.682Z,67.35
2022-08-05T03:49:52.011Z,67.29
2022-08-05T03:52:50.258Z,67.52
2022-08-05T03:54:59.099Z,67.51
2022-08-05T03:56:04.637Z,67.42
2022-08-05T03:56:06.228Z,67.46
2022-08-05T03:57:34.482Z,67.33
2022-08-05T03:58:38.215Z,67.17
2022-08-05T03:59:55.593Z,67.36
2022-08-05T04:01:02.317Z,67.50
2022-08-05T04:02:12.186Z,67.59
2022-08-05T04:03:28.554Z,67.71
2022-08-05T04:04:33.234Z,67.60
2022-08-05T04:05:38.589Z,67.66
2022-08-05T04:06:47.853Z,67.56
2022-08-05T04:07:58.634Z,67.50
2022-08-05T04:09:06.456Z,67.38
2022-08-05T04:10:10.587Z,67.47
2022-08-05T04:11:20.763Z,67.46
2022-08-05T04:12:26.456Z,67.59
2022-08-05T04:13:50.354Z,67.67
2022-08-05T04:14:54.699Z,67.74
2022-08-05T04:16:04.825Z,67.91
2022-08-05T04:17:09.322Z,68.07
2022-08-05T04:18:20.539Z,68.17
2022-08-05T04:19:26.469Z,68.09
2022-08-05T04:20:32.307Z,68.11
2022-08-05T04:22:08.278Z,68.11
2022-08-05T04:23:00.256Z,68.15
2022-08-05T04:24:08.823Z,68.07
2022-08-05T04:25:38.378Z,67.97
2022-08-05T04:26:45.056Z,68.08
2022-08-05T04:27:57.193Z,68.18
2022-08-05T04:29:07.062Z,68.23
2022-08-05T04:30:11.457Z,68.22
2022-08-05T04:31:17.066Z,68.29
2022-08-05T04:32:31.165Z,68.22
2022-08-05T04:34:19.302Z,68.26
2022-08-05T04:34:59.832Z,68.33
2022-08-05T04:36:11.373Z,68.29
2022-08-05T04:37:20.060Z,68.40
2022-08-05T04:38:39.498Z,68.58
2022-08-05T04:39:43.240Z,68.58
2022-08-05T04:40:47.884Z,68.59
2022-08-05T04:41:54.443Z,68.82
2022-08-05T04:42:58.674Z,68.88
2022-08-05T04:44:02.123Z,69.00
2022-08-05T04:45:14.156Z,69.10
2022-08-05T04:46:28.305Z,68.98
2022-08-05T04:47:38.605Z,69.36
2022-08-05T04:48:46.206Z,69.14
2022-08-05T04:50:02.895Z,69.38
2022-08-05T04:51:14.905Z,69.17
2022-08-05T04:52:18.721Z,69.33
2022-08-05T04:53:22.394Z,69.53
2022-08-05T04:54:27.442Z,69.56
2022-08-05T04:56:11.894Z,69.48
2022-08-05T04:56:58.783Z,69.70
2022-08-05T04:58:05.938Z,69.73
2022-08-05T04:59:22.906Z,69.93
2022-08-05T05:00:50.647Z,69.99
2022-08-05T05:02:35.083Z,70.19
2022-08-05T05:03:20.323Z,70.10
2022-08-05T05:04:23.601Z,70.31
2022-08-05T05:05:29.355Z,70.28
2022-08-05T05:06:40.279Z,70.38
2022-08-05T05:07:56.146Z,70.58
2022-08-05T05:09:05.502Z,70.50
2022-08-05T05:10:09.069Z,70.77
2022-08-05T05:11:15.253Z,70.70
2022-08-05T05:12:19.206Z,70.76
2022-08-05T05:13:22.728Z,70.99
2022-08-05T05:14:31.519Z,71.01
2022-08-05T05:15:57.268Z,71.11
2022-08-05T05:16:58.657Z,71.32
2022-08-05T05:18:02.071Z,71.30
2022-08-05T05:19:18.786Z,71.49
2022-08-05T05:20:22.932Z,71.39
2022-08-05T05:21:33.086Z,71.38
2022-08-05T05:22:40.939Z,71.40
2022-08-05T05:24:03.820Z,71.65
2022-08-05T05:25:17.060Z,71.59
2022-08-05T05:26:28.619Z,71.78
2022-08-05T05:27:44.309Z,71.95
2022-08-05T05:28:48.502Z,71.75
2022-08-05T05:30:04.938Z,71.95
2022-08-05T05:31:09.025Z,72.25
2022-08-05T05:32:15.531Z,72.05
2022-08-05T05:33:23.111Z,72.18
2022-08-05T05:34:27.334Z,72.10
2022-08-05T05:35:38.014Z,72.11
2022-08-05T05:36:43.010Z,72.16
2022-08-05T05:37:59.838Z,72.10
2022-08-05T05:39:04.931Z,72.44
2022-08-05T05:40:18.686Z,72.13
2022-08-05T05:41:25.232Z,72.40
2022-08-05T05:42:47.159Z,72.14
2022-08-05T05:43:57.215Z,71.93
2022-08-05T05:45:03.615Z,71.92
2022-08-05T05:46:13.746Z,71.86
2022-08-05T05:47:21.638Z,71.88
2022-08-05T05:48:27.898Z,71.83
2022-08-05T05:49:31.061Z,71.76
2022-08-05T05:50:43.997Z,71.84
2022-08-05T05:51:50.650Z,71.82
2022-08-05T05:52:54.575Z,71.62
2022-08-05T05:54:00.060Z,71.55
2022-08-05T05:55:13.530Z,71.70
2022-08-05T05:56:31.365Z,71.59
2022-08-05T05:57:52.182Z,71.35
2022-08-05T05:58:58.611Z,71.06
2022-08-05T06:00:15.872Z,71.06
2022-08-05T06:01:20.098Z,70.98
2022-08-05T06:02:37.388Z,70.84
2022-08-05T06:04:01.906Z,70.77
2022-08-05T06:05:16.504Z,70.99
2022-08-05T06:06:20.243Z,71.18
2022-08-05T06:07:42.139Z,71.04
2022-08-05T06:08:49.233Z,71.07
2022-08-05T06:10:00.854Z,71.07
2022-08-05T06:11:07.993Z,71.09
2022-08-05T06:12:12.127Z,70.98
2022-08-05T06:13:15.441Z,70.92
2022-08-05T06:14:18.618Z,70.74
2022-08-05T06:15:23.946Z,70.73
2022-08-05T06:16:32.592Z,70.98
2022-08-05T06:17:53.010Z,71.03
2022-08-05T06:19:00.248Z,71.37
2022-08-05T06:20:06.226Z,71.38
2022-08-05T06:21:24.842Z,71.42
2022-08-05T06:22:40.601Z,72.08
2022-08-05T06:23:45.512Z,72.47
2022-08-05T06:24:53.401Z,72.28
2022-08-05T06:26:12.181Z,72.06
2022-08-05T06:28:12.821Z,72.14
2022-08-05T06:28:43.272Z,71.60
2022-08-05T06:30:03.967Z,71.52
2022-08-05T06:31:18.084Z,71.10
2022-08-05T06:32:28.895Z,70.70
2022-08-05T06:34:05.795Z,70.60
2022-08-05T06:34:57.927Z,70.43
2022-08-05T06:36:03.789Z,69.94
2022-08-05T06:37:11.682Z,69.15
2022-08-05T06:38:15.622Z,68.24
2022-08-05T06:39:19.331Z,66.71
2022-08-05T06:40:32.469Z,65.47
2022-08-05T06:41:36.652Z,64.35
2022-08-05T06:42:44.651Z,63.26
2022-08-05T06:43:59.013Z,63.53
2022-08-05T06:45:08.311Z,62.40
2022-08-05T06:46:12.136Z,62.31
2022-08-05T06:48:11.918Z,62.13
2022-08-05T06:48:55.634Z,61.69
2022-08-05T06:50:05.298Z,59.88
2022-08-05T06:51:09.548Z,59.98
2022-08-05T06:52:36.600Z,59.44
2022-08-05T06:53:39.261Z,57.90
2022-08-05T06:54:42.907Z,57.55
2022-08-05T06:55:46.070Z,56.97
2022-08-05T06:56:54.701Z,56.56
2022-08-05T06:58:20.032Z,56.19
2022-08-05T06:59:21.751Z,56.00
2022-08-05T07:00:25.622Z,55.36
2022-08-05T07:01:32.195Z,54.61
2022-08-05T07:02:42.995Z,54.23
2022-08-05T07:03:46.855Z,54.12
2022-08-05T07:04:54.405Z,53.52
2022-08-05T07:06:06.033Z,53.11
2022-08-05T07:07:24.161Z,52.61
2022-08-05T07:08:47.743Z,52.66
2022-08-05T07:09:58.150Z,51.62
2022-08-05T07:11:01.997Z,51.22
2022-08-05T07:12:08.154Z,50.86
2022-08-05T07:13:56.703Z,50.45
2022-08-05T07:15:14.521Z,49.89
2022-08-05T07:18:00.691Z,49.95
2022-08-05T07:18:19.512Z,49.49
2022-08-05T07:20:53.804Z,48.12
2022-08-05T07:21:59.350Z,47.33
2022-08-05T07:23:04.683Z,46.85
2022-08-05T07:24:11.222Z,46.14
2022-08-05T07:25:54.416Z,45.70
2022-08-05T07:26:38.143Z,45.67
2022-08-05T07:27:58.772Z,46.02
2022-08-05T07:29:05.555Z,45.85
2022-08-05T07:30:30.190Z,45.46
2022-08-05T07:31:53.991Z,45.45
2022-08-05T07:32:58.812Z,45.08
2022-08-05T07:34:03.176Z,44.70
2022-08-05T07:35:55.995Z,44.80
2022-08-05T07:36:41.881Z,44.23
2022-08-05T07:37:47.862Z,44.33
2022-08-05T07:38:54.926Z,43.80
2022-08-05T07:40:27.148Z,43.47
2022-08-05T07:42:07.970Z,42.97
2022-08-05T07:42:49.132Z,43.41
2022-08-05T07:43:55.095Z,43.95
2022-08-05T07:45:00.438Z,43.83
2022-08-05T07:46:03.868Z,43.62
2022-08-05T07:47:10.160Z,43.17
2022-08-05T07:48:16.604Z,43.20
2022-08-05T07:49:43.584Z,43.54
2022-08-05T07:50:59.712Z,43.30
2022-08-05T07:52:03.157Z,43.43
2022-08-05T07:53:06.868Z,43.15
2022-08-05T07:54:11.538Z,42.92
2022-08-05T07:55:44.226Z,43.02
2022-08-05T07:57:14.552Z,43.10
2022-08-05T07:58:03.136Z,43.06
2022-08-05T07:59:08.687Z,42.60
2022-08-05T08:00:14.792Z,42.66
2022-08-05T08:01:18.585Z,42.89
2022-08-05T08:02:30.967Z,42.74
2022-08-05T08:03:51.623Z,42.57
2022-08-05T08:04:56.008Z,42.07
2022-08-05T08:06:02.266Z,41.53
2022-08-05T08:07:07.074Z,41.78
2022-08-05T08:08:12.127Z,40.80
2022-08-05T08:09:15.691Z,40.58
2022-08-05T08:10:20.622Z,40.27
2022-08-05T08:11:27.630Z,40.13
2022-08-05T08:12:49.823Z,40.08
2022-08-05T08:14:00.615Z,39.26
2022-08-05T08:15:15.757Z,38.52
2022-08-05T08:16:35.296Z,38.33
2022-08-05T08:17:50.638Z,39.22
2022-08-05T08:18:56.435Z,38.13
2022-08-05T08:20:43.383Z,36.45
2022-08-05T08:21:25.612Z,36.87
2022-08-05T08:22:30.031Z,36.06
2022-08-05T08:24:01.768Z,35.89
2022-08-05T08:25:02.710Z,35.89
2022-08-05T08:26:07.157Z,35.29
2022-08-05T08:27:10.929Z,34.25
2022-08-05T08:28:36.793Z,35.22
2022-08-05T08:30:05.256Z,35.53
2022-08-05T08:31:04.377Z,35.89
2022-08-05T08:32:07.752Z,35.29
2022-08-05T08:33:14.446Z,34.16
2022-08-05T08:34:30.430Z,34.24
2022-08-05T08:35:40.935Z,34.51
2022-08-05T08:36:48.913Z,34.68
2022-08-05T08:37:56.421Z,34.99
2022-08-05T08:38:59.838Z,35.36
2022-08-05T08:40:05.558Z,36.04
2022-08-05T08:41:10.907Z,35.92
2022-08-05T08:42:33.677Z,35.49
2022-08-05T08:45:16.625Z,35.34
2022-08-05T08:45:19.143Z,35.25
2022-08-05T08:46:30.639Z,34.61
2022-08-05T08:48:05.917Z,33.24
2022-08-05T08:50:05.720Z,33.74
2022-08-05T08:50:32.978Z,34.25
2022-08-05T08:52:03.327Z,33.53
2022-08-05T08:53:15.403Z,33.56
2022-08-05T08:54:18.636Z,34.22
2022-08-05T08:56:01.846Z,34.53
2022-08-05T08:56:47.675Z,34.04
2022-08-05T08:57:57.933Z,33.93
2022-08-05T08:59:03.173Z,33.79
2022-08-05T09:00:15.826Z,34.45
2022-08-05T09:01:22.705Z,33.55
2022-08-05T09:02:27.144Z,33.75
2022-08-05T09:03:45.012Z,34.13
2022-08-05T09:05:15.911Z,34.47
2022-08-05T09:06:18.620Z,34.46
2022-08-05T09:07:28.894Z,34.45
2022-08-05T09:08:32.837Z,33.89
2022-08-05T09:09:38.155Z,33.30
2022-08-05T09:10:46.903Z,32.85
2022-08-05T09:11:51.276Z,32.57
2022-08-05T09:13:04.851Z,32.29
2022-08-05T09:14:54.131Z,32.53
2022-08-05T09:15:32.401Z,33.30
2022-08-05T09:16:48.634Z,32.18
2022-08-05T09:17:52.974Z,32.55
2022-08-05T09:18:59.225Z,32.21
2022-08-05T09:20:05.605Z,32.32
2022-08-05T09:21:11.718Z,31.65
2022-08-05T09:22:31.038Z,31.98
2022-08-05T09:23:37.521Z,32.34
2022-08-05T09:25:23.809Z,32.15
2022-08-05T09:26:32.429Z,31.92
2022-08-05T09:28:03.869Z,31.42
2022-08-05T09:29:05.024Z,31.62
2022-08-05T09:30:08.680Z,31.10
2022-08-05T09:32:39.259Z,31.08
2022-08-05T09:32:46.939Z,30.88
2022-08-05T09:33:55.067Z,30.82
2022-08-05T09:35:02.561Z,31.24
2022-08-05T09:36:16.285Z,30.98
2022-08-05T09:38:12.580Z,31.04
2022-08-05T09:39:04.011Z,30.07
2022-08-05T09:40:36.395Z,29.85
2022-08-05T09:42:00.388Z,29.43
2022-08-05T09:43:08.455Z,29.71
2022-08-05T09:44:11.817Z,29.39
2022-08-05T09:46:05.104Z,29.08
2022-08-05T09:46:50.163Z,28.47
2022-08-05T09:47:56.695Z,28.72
2022-08-05T09:49:06.771Z,29.85
2022-08-05T09:50:11.549Z,28.98
2022-08-05T09:51:15.813Z,29.54
2022-08-05T09:52:33.752Z,29.58
2022-08-05T09:53:53.669Z,29.30
2022-08-05T09:55:55.559Z,29.89
2022-08-05T09:56:37.800Z,30.63
2022-08-05T09:57:43.963Z,31.15
2022-08-05T09:59:17.941Z,31.82
2022-08-05T10:00:26.518Z,31.28
2022-08-05T10:01:33.696Z,31.32
2022-08-05T10:02:43.497Z,31.40
2022-08-05T10:04:28.654Z,31.58
2022-08-05T10:05:33.581Z,30.61
2022-08-05T10:06:37.333Z,30.32
2022-08-05T10:08:36.706Z,31.05
2022-08-05T10:09:27.361Z,30.65
2022-08-05T10:10:46.106Z,30.02
2022-08-05T10:11:51.443Z,29.66
2022-08-05T10:13:00.699Z,29.63
2022-08-05T10:14:30.223Z,30.37
2022-08-05T10:15:42.984Z,30.08
2022-08-05T10:16:52.381Z,30.35
2022-08-05T10:18:09.115Z,30.05
2022-08-05T10:19:13.964Z,29.84
2022-08-05T10:20:20.553Z,29.32
2022-08-05T10:21:25.077Z,29.22
2022-08-05T10:22:29.672Z,29.20
2022-08-05T10:23:59.253Z,29.49
2022-08-05T10:25:01.979Z,29.32
2022-08-05T10:26:08.131Z,30.02
2022-08-05T10:27:18.928Z,28.85
2022-08-05T10:28:30.783Z,28.74
2022-08-05T10:30:41.063Z,28.34
2022-08-05T10:32:49.411Z,28.74
2022-08-05T10:32:52.647Z,29.02
2022-08-05T10:33:52.280Z,29.79
2022-08-05T10:35:00.826Z,30.46
2022-08-05T10:36:05.292Z,30.07
2022-08-05T10:37:08.832Z,29.19
2022-08-05T10:38:13.608Z,28.86
2022-08-05T10:39:24.161Z,28.68
2022-08-05T10:40:43.530Z,28.28
2022-08-05T10:42:08.235Z,28.56
2022-08-05T10:43:30.823Z,28.51
2022-08-05T10:44:43.582Z,28.18
2022-08-05T10:46:06.787Z,27.69
2022-08-05T10:47:26.817Z,28.22
2022-08-05T10:48:52.395Z,27.93
2022-08-05T10:50:31.961Z,27.68
2022-08-05T10:51:59.900Z,27.05
2022-08-05T10:53:04.189Z,26.58
2022-08-05T10:54:28.530Z,26.26
2022-08-05T10:56:03.528Z,26.83
2022-08-05T10:56:57.303Z,27.77
2022-08-05T10:58:08.849Z,27.52
2022-08-05T11:00:03.451Z,27.09
2022-08-05T11:00:47.435Z,27.05
2022-08-05T11:02:05.960Z,27.64
2022-08-05T11:03:25.259Z,27.63
2022-08-05T11:04:30.756Z,26.36
2022-08-05T11:05:35.160Z,26.18
2022-08-05T11:06:58.248Z,26.01
2022-08-05T11:08:27.536Z,26.63
2022-08-05T11:09:51.842Z,25.85
2022-08-05T11:11:44.720Z,25.65
2022-08-05T11:12:57.957Z,26.08
2022-08-05T11:14:02.792Z,26.51
2022-08-05T11:15:19.696Z,26.33
2022-08-05T11:16:34.013Z,26.20
2022-08-05T11:18:00.322Z,26.12
2022-08-05T11:20:16.554Z,26.30
2022-08-05T11:20:54.785Z,26.34
2022-08-05T11:22:37.277Z,26.17
2022-08-05T11:24:04.140Z,26.34
2022-08-05T11:26:05.015Z,26.24
2022-08-05T11:27:51.347Z,26.25
2022-08-05T11:28:54.632Z,26.93
2022-08-05T11:30:04.065Z,27.01
2022-08-05T11:31:07.309Z,26.97
2022-08-05T11:32:30.975Z,28.23
2022-08-05T11:33:46.471Z,27.86
2022-08-05T11:34:54.377Z,27.59
2022-08-05T11:36:07.565Z,26.70
2022-08-05T11:38:37.400Z,26.89
2022-08-05T11:38:57.712Z,26.67
2022-08-05T11:40:04.331Z,26.91
2022-08-05T11:41:57.926Z,27.02
2022-08-05T11:42:49.607Z,25.37
2022-08-05T11:44:05.474Z,24.85
2022-08-05T11:45:26.803Z,24.15
2022-08-05T11:46:58.569Z,24.47
2022-08-05T11:48:09.682Z,24.74
2022-08-05T11:49:16.959Z,24.35
2022-08-05T11:50:20.147Z,24.96
2022-08-05T11:51:44.274Z,24.97
2022-08-05T11:52:54.395Z,25.03
2022-08-05T11:54:02.139Z,24.96
2022-08-05T11:55:07.582Z,24.33
2022-08-05T11:56:11.410Z,23.95
2022-08-05T11:57:25.562Z,24.00
2022-08-05T11:58:40.061Z,24.29
2022-08-05T11:59:50.169Z,24.36
2022-08-05T12:01:02.935Z,24.49
2022-08-05T12:02:23.926Z,24.68
2022-08-05T12:03:56.352Z,25.08
2022-08-05T12:05:07.682Z,25.29
2022-08-05T12:06:26.453Z,25.64
2022-08-05T12:08:08.029Z,25.95
2022-08-05T12:08:59.807Z,26.65
2022-08-05T12:10:09.152Z,26.66
2022-08-05T12:11:40.452Z,26.85
2022-08-05T12:12:59.464Z,27.28
2022-08-05T12:14:06.117Z,27.80
2022-08-05T12:15:20.932Z,28.37
2022-08-05T12:16:45.164Z,28.59
2022-08-05T12:18:03.093Z,28.17
2022-08-05T12:19:10.211Z,27.97
2022-08-05T12:20:38.985Z,28.66
2022-08-05T12:21:45.151Z,28.55
2022-08-05T12:22:49.562Z,28.36
2022-08-05T12:24:06.994Z,26.74
2022-08-05T12:25:10.816Z,27.08
2022-08-05T12:26:17.944Z,27.02
2022-08-05T12:27:32.674Z,26.57
2022-08-05T12:28:42.732Z,26.93
2022-08-05T12:30:15.430Z,26.73
2022-08-05T12:31:33.022Z,26.24
2022-08-05T12:32:53.989Z,25.03
2022-08-05T12:34:00.980Z,24.76
2022-08-05T12:35:09.399Z,25.61
2022-08-05T12:36:13.298Z,25.38
2022-08-05T12:37:21.548Z,26.18
2022-08-05T12:38:31.568Z,26.29
2022-08-05T12:39:38.522Z,25.66
2022-08-05T12:40:43.499Z,25.59
2022-08-05T12:41:47.547Z,25.19
2022-08-05T12:42:56.155Z,25.36
2022-08-05T12:44:06.392Z,26.13
2022-08-05T12:45:49.543Z,26.15
2022-08-05T12:46:54.333Z,26.21
2022-08-05T12:48:01.544Z,25.63
2022-08-05T12:49:25.599Z,25.31
2022-08-05T12:50:30.827Z,25.47
2022-08-05T12:52:13.900Z,24.98
2022-08-05T12:53:17.321Z,25.17
2022-08-05T12:54:26.562Z,25.33
2022-08-05T12:55:35.268Z,25.44
2022-08-05T12:56:42.449Z,25.84
2022-08-05T12:58:48.312Z,26.03
2022-08-05T12:59:27.522Z,25.94
2022-08-05T13:02:00.691Z,25.73
2022-08-05T13:02:13.041Z,25.15
2022-08-05T13:03:16.437Z,25.26
2022-08-05T13:04:22.947Z,25.63
2022-08-05T13:05:37.339Z,26.50
2022-08-05T13:06:50.770Z,26.40
2022-08-05T13:08:00.229Z,26.37
2022-08-05T13:09:08.733Z,26.61
2022-08-05T13:10:19.869Z,26.28
2022-08-05T13:12:02.683Z,25.95
2022-08-05T13:12:58.184Z,26.01
2022-08-05T13:14:05.756Z,25.87
2022-08-05T13:15:16.566Z,24.95
2022-08-05T13:16:29.867Z,25.11
2022-08-05T13:17:41.826Z,26.31
2022-08-05T13:18:57.760Z,26.46
2022-08-05T13:20:02.217Z,26.22
2022-08-05T13:21:15.236Z,26.57
2022-08-05T13:22:27.960Z,26.37
2022-08-05T13:23:32.667Z,26.83
2022-08-05T13:24:57.370Z,27.15
2022-08-05T13:26:02.124Z,26.50
2022-08-05T13:27:11.146Z,26.69
2022-08-05T13:28:16.997Z,26.75
2022-08-05T13:29:37.335Z,27.01
2022-08-05T13:30:41.909Z,26.72
2022-08-05T13:32:03.781Z,25.69
2022-08-05T13:33:08.028Z,25.58
2022-08-05T13:34:24.831Z,26.04
2022-08-05T13:35:42.536Z,25.75
2022-08-05T13:36:46.697Z,25.52
2022-08-05T13:37:55.749Z,25.41
2022-08-05T13:38:59.199Z,25.56
2022-08-05T13:40:13.638Z,25.28
2022-08-05T13:41:18.303Z,24.75
2022-08-05T13:42:23.603Z,25.17
2022-08-05T13:43:45.858Z,25.29
2022-08-05T13:44:56.686Z,25.79
2022-08-05T13:46:05.255Z,25.38
2022-08-05T13:47:09.310Z,25.21
2022-08-05T13:48:58.484Z,24.57
2022-08-05T13:49:45.094Z,24.41
2022-08-05T13:50:49.646Z,24.50
2022-08-05T13:51:52.840Z,24.29
2022-08-05T13:52:57.261Z,24.66
2022-08-05T13:54:01.801Z,24.80
2022-08-05T13:55:07.634Z,24.84
2022-08-05T13:56:18.481Z,24.41
2022-08-05T13:57:23.055Z,24.06
2022-08-05T13:58:30.772Z,24.29
2022-08-05T13:59:37.645Z,24.47
2022-08-05T14:01:00.927Z,24.84
2022-08-05T14:02:07.429Z,24.26
2022-08-05T14:03:23.333Z,23.63
2022-08-05T14:04:49.672Z,23.46
2022-08-05T14:06:26.489Z,24.13
2022-08-05T14:08:00.139Z,23.85
2022-08-05T14:08:50.925Z,24.25
2022-08-05T14:09:55.943Z,24.16
2022-08-05T14:10:59.774Z,23.90
2022-08-05T14:12:17.689Z,23.23
2022-08-05T14:13:23.554Z,23.66
2022-08-05T14:14:32.304Z,23.73
2022-08-05T14:16:05.143Z,23.35
2022-08-05T14:17:02.637Z,23.31
2022-08-05T14:18:14.970Z,22.69
2022-08-05T14:19:21.131Z,23.19
2022-08-05T14:20:27.179Z,22.73
2022-08-05T14:22:08.903Z,23.05
2022-08-05T14:22:54.538Z,23.06
2022-08-05T14:23:57.611Z,23.24
2022-08-05T14:25:06.250Z,23.08
2022-08-05T14:26:38.352Z,23.06
2022-08-05T14:27:47.570Z,22.88
2022-08-05T14:28:52.243Z,22.99
2022-08-05T14:29:56.335Z,23.04
2022-08-05T14:31:01.365Z,22.95
2022-08-05T14:32:15.943Z,22.30
2022-08-05T14:33:56.469Z,22.28
2022-08-05T14:34:52.177Z,22.50
2022-08-05T14:35:55.817Z,22.62
2022-08-05T14:36:59.540Z,23.09
2022-08-05T14:38:02.709Z,22.99
2022-08-05T14:39:07.774Z,23.14
2022-08-05T14:40:16.586Z,23.54
2022-08-05T14:41:21.055Z,23.42
2022-08-05T14:42:24.994Z,23.34
2022-08-05T14:44:00.258Z,23.20
2022-08-05T14:44:52.006Z,22.71
2022-08-05T14:45:55.140Z,22.54
2022-08-05T14:46:58.529Z,22.20
2022-08-05T14:48:05.309Z,21.99
2022-08-05T14:49:13.832Z,22.68
2022-08-05T14:50:19.072Z,22.10
2022-08-05T14:51:22.551Z,22.04
2022-08-05T14:52:50.479Z,22.30
2022-08-05T14:54:26.979Z,22.63
2022-08-05T14:55:24.998Z,22.83
2022-08-05T14:56:28.262Z,22.89
2022-08-05T14:57:33.929Z,22.65
2022-08-05T14:58:55.509Z,22.60
2022-08-05T14:59:58.669Z,23.45
2022-08-05T15:01:02.093Z,23.62
2022-08-05T15:02:15.176Z,23.35
2022-08-05T15:03:22.966Z,23.10
2022-08-05T15:04:27.367Z,23.29
2022-08-05T15:06:06.825Z,23.95
2022-08-05T15:06:56.626Z,24.15
2022-08-05T15:08:10.690Z,24.18
2022-08-05T15:09:52.404Z,24.36
2022-08-05T15:10:46.205Z,24.57
2022-08-05T15:11:51.771Z,24.52
2022-08-05T15:13:01.367Z,24.34
2022-08-05T15:14:07.788Z,24.36
2022-08-05T15:15:15.332Z,24.36
2022-08-05T15:16:21.037Z,23.66
2022-08-05T15:17:46.815Z,23.51
2022-08-05T15:18:50.684Z,23.40
2022-08-05T15:19:55.986Z,23.28
2022-08-05T15:21:07.572Z,22.86
2022-08-05T15:22:11.264Z,22.92
2022-08-05T15:23:14.586Z,23.41
2022-08-05T15:24:17.660Z,23.26
2022-08-05T15:25:52.772Z,23.92
2022-08-05T15:26:47.508Z,24.32
2022-08-05T15:27:52.067Z,23.71
2022-08-05T15:28:56.798Z,23.56
2022-08-05T15:30:01.441Z,23.60
2022-08-05T15:31:05.653Z,23.47
2022-08-05T15:32:10.031Z,23.70
2022-08-05T15:33:13.436Z,23.78
2022-08-05T15:34:36.799Z,23.45
2022-08-05T15:35:45.357Z,23.14
2022-08-05T15:36:49.449Z,23.52